| time (UTC) | temp C | wind direction | speed KPH | gust KPH | rain 1hr cm | rain 24hr cm | rain mn cm | humidity % | barometer mb |
| 20260906214549 | 28 | 210 | 9.7 | 19.3 | 0.00 | 0.00 | 0.00 | 37 | 1022.8 |
| 20260906213048 | 28 | 207 | 8.0 | 20.9 | 0.00 | 0.00 | 0.00 | 39 | 1023.1 |
| 20260906211548 | 28 | 171 | 8.0 | 20.9 | 0.00 | 0.00 | 0.00 | 36 | 1022.9 |
| 20260906210055 | 29 | 184 | 4.8 | 19.3 | 0.00 | 0.00 | 0.00 | 39 | 1023.1 |
| 20260906204546 | 28 | 209 | 8.0 | 30.6 | 0.00 | 0.00 | 0.00 | 41 | 1023.5 |
| 20260906203044 | 27 | 193 | 4.8 | 12.9 | 0.00 | 0.00 | 0.00 | 42 | 1023.6 |
| 20260906201555 | 27 | 170 | 8.0 | 24.1 | 0.00 | 0.00 | 0.00 | 42 | 1023.8 |
| 20260906200048 | 28 | 193 | 6.4 | 14.5 | 0.00 | 0.00 | 0.00 | 38 | 1023.9 |
| 20260906194553 | 28 | 158 | 4.8 | 11.3 | 0.00 | 0.00 | 0.00 | 37 | 1024.0 |
| 20260906193049 | 29 | 207 | 4.8 | 14.5 | 0.00 | 0.00 | 0.00 | 36 | 1024.2 |
| 20260906191548 | 28 | 160 | 4.8 | 19.3 | 0.00 | 0.00 | 0.00 | 39 | 1024.3 |
| 20260906190050 | 28 | 169 | 8.0 | 16.1 | 0.00 | 0.00 | 0.00 | 36 | 1024.4 |
| 20260906184619 | 28 | 53 | 6.4 | 19.3 | 0.00 | 0.00 | 0.00 | 38 | 1024.6 |
| 20260906183052 | 27 | 150 | 8.0 | 17.7 | 0.00 | 0.00 | 0.00 | 37 | 1025.1 |
| 20260906181551 | 28 | 215 | 4.8 | 17.7 | 0.00 | 0.00 | 0.00 | 37 | 1025.2 |
| 20260906180043 | 28 | 194 | 4.8 | 14.5 | 0.00 | 0.00 | 0.00 | 37 | 1025.5 |
| 20260906174550 | 27 | 216 | 3.2 | 11.3 | 0.00 | 0.00 | 0.00 | 40 | 1025.6 |
| 20260906173055 | 27 | 214 | 3.2 | 12.9 | 0.00 | 0.00 | 0.00 | 40 | 1025.7 |
| 20260906171547 | 26 | 195 | 3.2 | 14.5 | 0.00 | 0.00 | 0.00 | 39 | 1025.8 |
| 20260906170043 | 25 | 18 | 4.8 | 12.9 | 0.00 | 0.00 | 0.00 | 41 | 1025.8 |
| 20260906164551 | 25 | 98 | 1.6 | 9.7 | 0.00 | 0.00 | 0.00 | 42 | 1026.0 |
| 20260906163048 | 25 | 326 | 1.6 | 4.8 | 0.00 | 0.00 | 0.00 | 41 | 1026.2 |
| 20260906161546 | 23 | 15 | 3.2 | 8.0 | 0.00 | 0.00 | 0.00 | 44 | 1026.2 |
| 20260906160043 | 23 | 29 | 3.2 | 6.4 | 0.00 | 0.00 | 0.00 | 44 | 1026.2 |
| 20260906154551 | 22 | 51 | 3.2 | 11.3 | 0.00 | 0.00 | 0.00 | 45 | 1026.0 |
| 20260906153047 | 22 | 40 | 3.2 | 9.7 | 0.00 | 0.00 | 0.00 | 47 | 1026.1 |
| 20260906151551 | 21 | 340 | 3.2 | 11.3 | 0.00 | 0.00 | 0.00 | 48 | 1026.0 |
| 20260906150053 | 20 | 18 | 3.2 | 8.0 | 0.00 | 0.00 | 0.00 | 53 | 1026.0 |
| 20260906144548 | 19 | 31 | 4.8 | 8.0 | 0.00 | 0.00 | 0.00 | 54 | 1025.9 |
| 20260906143046 | 18 | 344 | 3.2 | 6.4 | 0.00 | 0.00 | 0.00 | 56 | 1025.9 |
| 20260906141546 | 18 | 340 | 6.4 | 11.3 | 0.00 | 0.00 | 0.00 | 58 | 1025.8 |
| 20260906140053 | 17 | 23 | 4.8 | 8.0 | 0.00 | 0.00 | 0.00 | 60 | 1025.6 |
| 20260906134556 | 16 | 15 | 4.8 | 8.0 | 0.00 | 0.00 | 0.00 | 62 | 1025.7 |
| 20260906133055 | 16 | 29 | 1.6 | 6.4 | 0.00 | 0.00 | 0.00 | 64 | 1025.5 |
| 20260906131545 | 15 | 6 | 3.2 | 6.4 | 0.00 | 0.00 | 0.00 | 64 | 1025.3 |
| 20260906130056 | 15 | 352 | 3.2 | 8.0 | 0.00 | 0.00 | 0.00 | 64 | 1025.1 |
| 20260906124543 | 15 | 25 | 3.2 | 9.7 | 0.00 | 0.00 | 0.00 | 63 | 1025.3 |
| 20260906123053 | 15 | 354 | 3.2 | 4.8 | 0.00 | 0.00 | 0.00 | 63 | 1025.2 |
| 20260906121558 | 15 | 6 | 3.2 | 6.4 | 0.00 | 0.00 | 0.00 | 62 | 1025.2 |
| 20260906114543 | 16 | 356 | 1.6 | 4.8 | 0.00 | 0.00 | 0.00 | 60 | 1024.9 |
| 20260906113056 | 16 | 10 | 1.6 | 8.0 | 0.00 | 0.00 | 0.00 | 60 | 1024.9 |
| 20260906111551 | 16 | 0 | 0.0 | 0.0 | 0.00 | 0.00 | 0.00 | 60 | 1024.7 |
| 20260906110048 | 16 | 0 | 0.0 | 0.0 | 0.00 | 0.00 | 0.00 | 60 | 1024.7 |
| 20260906104544 | 16 | 0 | 0.0 | 0.0 | 0.00 | 0.00 | 0.00 | 60 | 1024.6 |
| 20260906103055 | 15 | 0 | 0.0 | 0.0 | 0.00 | 0.00 | 0.00 | 62 | 1024.9 |
| 20260906101548 | 14 | 0 | 0.0 | 0.0 | 0.00 | 0.00 | 0.00 | 64 | 1024.8 |
| 20260906100046 | 15 | 0 | 0.0 | 0.0 | 0.00 | 0.00 | 0.00 | 64 | 1024.9 |
| 20260906094542 | 16 | 0 | 0.0 | 0.0 | 0.00 | 0.00 | 0.00 | 63 | 1025.1 |
| 20260906093056 | 16 | 0 | 0.0 | 0.0 | 0.00 | 0.00 | 0.00 | 63 | 1025.0 |
| 20260906091547 | 15 | 0 | 0.0 | 0.0 | 0.00 | 0.00 | 0.00 | 68 | 1024.9 |
| 20260906090042 | 16 | 0 | 0.0 | 0.0 | 0.00 | 0.00 | 0.00 | 66 | 1024.9 |
| 20260906084549 | 16 | 0 | 0.0 | 0.0 | 0.00 | 0.00 | 0.00 | 66 | 1024.9 |
| 20260906083052 | 16 | 0 | 0.0 | 0.0 | 0.00 | 0.00 | 0.00 | 69 | 1025.0 |
| 20260906081548 | 17 | 0 | 0.0 | 0.0 | 0.00 | 0.00 | 0.00 | 66 | 1025.1 |
| 20260906080046 | 17 | 0 | 0.0 | 0.0 | 0.00 | 0.00 | 0.00 | 65 | 1024.9 |
| 20260906074542 | 17 | 0 | 0.0 | 4.8 | 0.00 | 0.00 | 0.00 | 69 | 1025.2 |
| 20260906073051 | 16 | 0 | 0.0 | 1.6 | 0.00 | 0.00 | 0.00 | 77 | 1025.3 |
| 20260906071547 | 16 | 0 | 0.0 | 0.0 | 0.00 | 0.00 | 0.00 | 77 | 1025.3 |
| 20260906070048 | 16 | 0 | 0.0 | 0.0 | 0.00 | 0.00 | 0.00 | 77 | 1025.3 |
| 20260906064554 | 16 | 0 | 0.0 | 0.0 | 0.00 | 0.00 | 0.00 | 77 | 1025.5 |
| 20260906063048 | 16 | 0 | 0.0 | 0.0 | 0.00 | 0.00 | 0.00 | 76 | 1025.5 |
| 20260906061550 | 16 | 0 | 0.0 | 0.0 | 0.00 | 0.00 | 0.00 | 75 | 1025.4 |
| 20260906060045 | 17 | 352 | 4.8 | 12.9 | 0.00 | 0.00 | 0.00 | 74 | 1025.3 |
| 20260906054553 | 17 | 0 | 0.0 | 9.7 | 0.00 | 0.00 | 0.00 | 71 | 1024.9 |
| 20260906053049 | 17 | 187 | 3.2 | 9.7 | 0.00 | 0.00 | 0.00 | 71 | 1024.9 |
| 20260906051551 | 17 | 207 | 4.8 | 11.3 | 0.00 | 0.00 | 0.00 | 71 | 1025.0 |
| 20260906050046 | 18 | 153 | 3.2 | 11.3 | 0.00 | 0.00 | 0.00 | 71 | 1025.0 |
| 20260906044552 | 18 | 162 | 4.8 | 11.3 | 0.00 | 0.00 | 0.00 | 71 | 1025.1 |
| 20260906043046 | 18 | 195 | 3.2 | 11.3 | 0.00 | 0.00 | 0.00 | 71 | 1025.3 |
| 20260906041547 | 18 | 186 | 1.6 | 8.0 | 0.00 | 0.00 | 0.00 | 70 | 1025.2 |
| 20260906040047 | 18 | 204 | 3.2 | 8.0 | 0.00 | 0.00 | 0.00 | 70 | 1025.3 |
| 20260906034601 | 18 | 0 | 0.0 | 4.8 | 0.00 | 0.00 | 0.00 | 69 | 1025.6 |
| 20260906033049 | 19 | 175 | 3.2 | 9.7 | 0.00 | 0.00 | 0.00 | 69 | 1025.5 |
| 20260906031546 | 19 | 224 | 3.2 | 9.7 | 0.00 | 0.00 | 0.00 | 69 | 1025.1 |
| 20260906030054 | 19 | 204 | 3.2 | 8.0 | 0.00 | 0.00 | 0.00 | 69 | 1025.0 |
| 20260906024553 | 19 | 205 | 3.2 | 6.4 | 0.00 | 0.00 | 0.00 | 69 | 1024.9 |
| 20260906023051 | 19 | 169 | 1.6 | 9.7 | 0.00 | 0.00 | 0.00 | 66 | 1024.8 |
| 20260906021547 | 18 | 0 | 0.0 | 0.0 | 0.00 | 0.00 | 0.00 | 47 | 1024.6 |
| 20260906020057 | 20 | 0 | 0.0 | 0.0 | 0.00 | 0.00 | 0.00 | 45 | 1024.0 |
| 20260906014553 | 20 | 0 | 0.0 | 0.0 | 0.00 | 0.00 | 0.00 | 43 | 1023.8 |
| 20260906013048 | 21 | 0 | 0.0 | 0.0 | 0.00 | 0.00 | 0.00 | 41 | 1023.8 |
| 20260906011546 | 22 | 0 | 0.0 | 0.0 | 0.00 | 0.00 | 0.00 | 39 | 1023.9 |
| 20260906010050 | 23 | 0 | 0.0 | 4.8 | 0.00 | 0.00 | 0.00 | 38 | 1024.0 |
| 20260906004545 | 23 | 3 | 1.6 | 4.8 | 0.00 | 0.00 | 0.00 | 38 | 1024.2 |
| 20260906003050 | 23 | 319 | 3.2 | 9.7 | 0.00 | 0.00 | 0.00 | 38 | 1024.3 |
| 20260906001547 | 23 | 14 | 1.6 | 4.8 | 0.00 | 0.00 | 0.00 | 39 | 1024.4 |
| 20260906000049 | 24 | 1 | 1.6 | 8.0 | 0.00 | 0.00 | 0.00 | 38 | 1024.3 |
| 20260905234553 | 25 | 4 | 1.6 | 8.0 | 0.00 | 0.00 | 0.00 | 37 | 1024.2 |
| 20260905233050 | 26 | 0 | 0.0 | 0.0 | 0.00 | 0.00 | 0.00 | 33 | 1024.1 |
| 20260905231549 | 26 | 0 | 0.0 | 0.0 | 0.00 | 0.00 | 0.00 | 33 | 1023.9 |
| 20260905230049 | 26 | 0 | 0.0 | 1.6 | 0.00 | 0.00 | 0.00 | 33 | 1024.0 |
| 20260905224552 | 26 | 0 | 0.0 | 4.8 | 0.00 | 0.00 | 0.00 | 36 | 1024.1 |
| 20260905223051 | 25 | 0 | 0.0 | 6.4 | 0.00 | 0.00 | 0.00 | 38 | 1024.4 |
| 20260905221548 | 25 | 0 | 0.0 | 4.8 | 0.00 | 0.00 | 0.00 | 36 | 1024.4 |
| 20260905220047 | 25 | 303 | 1.6 | 11.3 | 0.00 | 0.00 | 0.00 | 36 | 1024.5 |